sensor_id;sensor_type;location;lat;lon;timestamp;pressure;altitude;pressure_sealevel;temperature
68939;BMP180;59064;45.294;11.816;2023-07-20T00:01:46;100814.00;;;21.40
68939;BMP180;59064;45.294;11.816;2023-07-20T00:04:13;100794.60;;;21.40
68939;BMP180;59064;45.294;11.816;2023-07-20T00:06:39;100792.40;;;21.40
68939;BMP180;59064;45.294;11.816;2023-07-20T00:09:06;100817.80;;;21.40
68939;BMP180;59064;45.294;11.816;2023-07-20T00:11:31;100837.60;;;21.46
68939;BMP180;59064;45.294;11.816;2023-07-20T00:13:57;100843.40;;;21.50
68939;BMP180;59064;45.294;11.816;2023-07-20T00:16:22;100842.60;;;21.50
68939;BMP180;59064;45.294;11.816;2023-07-20T00:18:48;100857.60;;;21.50
68939;BMP180;59064;45.294;11.816;2023-07-20T00:21:13;100872.00;;;21.50
68939;BMP180;59064;45.294;11.816;2023-07-20T00:23:39;100861.40;;;21.60
68939;BMP180;59064;45.294;11.816;2023-07-20T00:26:04;100839.20;;;21.60
68939;BMP180;59064;45.294;11.816;2023-07-20T00:28:29;100840.00;;;21.60
68939;BMP180;59064;45.294;11.816;2023-07-20T00:30:55;100843.80;;;21.64
68939;BMP180;59064;45.294;11.816;2023-07-20T00:33:20;100834.80;;;21.70
68939;BMP180;59064;45.294;11.816;2023-07-20T00:35:46;100831.40;;;21.70
68939;BMP180;59064;45.294;11.816;2023-07-20T00:38:11;100816.80;;;21.80
68939;BMP180;59064;45.294;11.816;2023-07-20T00:40:41;100804.80;;;21.80
68939;BMP180;59064;45.294;11.816;2023-07-20T00:43:08;100792.80;;;21.80
68939;BMP180;59064;45.294;11.816;2023-07-20T00:45:34;100789.20;;;21.80
68939;BMP180;59064;45.294;11.816;2023-07-20T00:48:01;100794.00;;;21.80
68939;BMP180;59064;45.294;11.816;2023-07-20T00:50:28;100800.20;;;21.80
68939;BMP180;59064;45.294;11.816;2023-07-20T00:52:55;100789.80;;;21.80
68939;BMP180;59064;45.294;11.816;2023-07-20T00:55:21;100778.80;;;21.70
68939;BMP180;59064;45.294;11.816;2023-07-20T00:57:47;100788.20;;;21.70
68939;BMP180;59064;45.294;11.816;2023-07-20T01:00:13;100801.60;;;21.70
68939;BMP180;59064;45.294;11.816;2023-07-20T01:02:39;100803.60;;;21.70
68939;BMP180;59064;45.294;11.816;2023-07-20T01:05:05;100812.80;;;21.70
68939;BMP180;59064;45.294;11.816;2023-07-20T01:07:38;100834.40;;;21.70
68939;BMP180;59064;45.294;11.816;2023-07-20T01:10:10;100859.60;;;21.70
68939;BMP180;59064;45.294;11.816;2023-07-20T01:12:46;100868.80;;;21.70
68939;BMP180;59064;45.294;11.816;2023-07-20T01:15:12;100867.00;;;21.70
68939;BMP180;59064;45.294;11.816;2023-07-20T01:17:38;100866.00;;;21.70
68939;BMP180;59064;45.294;11.816;2023-07-20T01:20:06;100850.20;;;21.80
68939;BMP180;59064;45.294;11.816;2023-07-20T01:22:52;100835.80;;;21.80
68939;BMP180;59064;45.294;11.816;2023-07-20T01:31:20;100795.00;;;21.94
68939;BMP180;59064;45.294;11.816;2023-07-20T01:33:46;100775.20;;;22.00
68939;BMP180;59064;45.294;11.816;2023-07-20T01:36:14;100745.80;;;22.00
68939;BMP180;59064;45.294;11.816;2023-07-20T01:38:41;100735.20;;;22.00
68939;BMP180;59064;45.294;11.816;2023-07-20T01:41:10;100773.80;;;21.90
68939;BMP180;59064;45.294;11.816;2023-07-20T01:43:36;100811.20;;;22.00
68939;BMP180;59064;45.294;11.816;2023-07-20T01:46:02;100806.80;;;21.90
68939;BMP180;59064;45.294;11.816;2023-07-20T01:48:27;100808.20;;;21.90
68939;BMP180;59064;45.294;11.816;2023-07-20T01:50:53;100803.40;;;21.90
68939;BMP180;59064;45.294;11.816;2023-07-20T01:53:20;100785.80;;;21.90
68939;BMP180;59064;45.294;11.816;2023-07-20T01:55:45;100776.00;;;21.90
68939;BMP180;59064;45.294;11.816;2023-07-20T01:58:11;100773.20;;;21.90
68939;BMP180;59064;45.294;11.816;2023-07-20T02:00:37;100768.00;;;22.00
68939;BMP180;59064;45.294;11.816;2023-07-20T02:03:03;100762.40;;;22.00
68939;BMP180;59064;45.294;11.816;2023-07-20T02:05:29;100768.00;;;22.00
68939;BMP180;59064;45.294;11.816;2023-07-20T02:07:54;100778.00;;;21.92
68939;BMP180;59064;45.294;11.816;2023-07-20T02:10:20;100792.80;;;21.90
68939;BMP180;59064;45.294;11.816;2023-07-20T02:12:45;100777.00;;;21.90
68939;BMP180;59064;45.294;11.816;2023-07-20T02:15:11;100763.60;;;21.80
68939;BMP180;59064;45.294;11.816;2023-07-20T02:17:38;100768.20;;;21.80
68939;BMP180;59064;45.294;11.816;2023-07-20T02:20:07;100751.20;;;21.80
68939;BMP180;59064;45.294;11.816;2023-07-20T02:22:34;100717.20;;;21.80
68939;BMP180;59064;45.294;11.816;2023-07-20T02:25:00;100708.20;;;21.90
68939;BMP180;59064;45.294;11.816;2023-07-20T02:27:25;100728.40;;;21.90
68939;BMP180;59064;45.294;11.816;2023-07-20T02:29:51;100756.00;;;21.90
68939;BMP180;59064;45.294;11.816;2023-07-20T02:32:16;100757.80;;;21.82
68939;BMP180;59064;45.294;11.816;2023-07-20T02:34:41;100742.20;;;21.80
68939;BMP180;59064;45.294;11.816;2023-07-20T02:37:07;100724.40;;;21.80
68939;BMP180;59064;45.294;11.816;2023-07-20T02:39:32;100713.00;;;21.70
68939;BMP180;59064;45.294;11.816;2023-07-20T02:41:58;100708.80;;;21.70
68939;BMP180;59064;45.294;11.816;2023-07-20T02:44:24;100718.40;;;21.70
68939;BMP180;59064;45.294;11.816;2023-07-20T02:46:49;100724.60;;;21.68
68939;BMP180;59064;45.294;11.816;2023-07-20T02:49:15;100729.20;;;21.62
68939;BMP180;59064;45.294;11.816;2023-07-20T02:51:41;100725.20;;;21.64
68939;BMP180;59064;45.294;11.816;2023-07-20T02:54:07;100723.00;;;21.60
68939;BMP180;59064;45.294;11.816;2023-07-20T02:56:33;100713.00;;;21.60
68939;BMP180;59064;45.294;11.816;2023-07-20T02:58:59;100714.60;;;21.60
68939;BMP180;59064;45.294;11.816;2023-07-20T03:01:24;100729.80;;;21.60
68939;BMP180;59064;45.294;11.816;2023-07-20T03:03:49;100725.80;;;21.60
68939;BMP180;59064;45.294;11.816;2023-07-20T03:06:15;100724.80;;;21.60
68939;BMP180;59064;45.294;11.816;2023-07-20T03:08:43;100717.40;;;21.60
68939;BMP180;59064;45.294;11.816;2023-07-20T03:11:17;100704.40;;;21.60
68939;BMP180;59064;45.294;11.816;2023-07-20T03:13:44;100707.60;;;21.58
68939;BMP180;59064;45.294;11.816;2023-07-20T03:16:16;100725.60;;;21.52
68939;BMP180;59064;45.294;11.816;2023-07-20T03:18:43;100733.80;;;21.50
68939;BMP180;59064;45.294;11.816;2023-07-20T03:21:09;100729.20;;;21.50
68939;BMP180;59064;45.294;11.816;2023-07-20T03:23:37;100729.80;;;21.40
68939;BMP180;59064;45.294;11.816;2023-07-20T03:26:02;100725.20;;;21.40
68939;BMP180;59064;45.294;11.816;2023-07-20T03:28:28;100719.20;;;21.40
68939;BMP180;59064;45.294;11.816;2023-07-20T03:30:54;100716.80;;;21.30
68939;BMP180;59064;45.294;11.816;2023-07-20T03:33:28;100718.60;;;21.30
68939;BMP180;59064;45.294;11.816;2023-07-20T03:35:54;100718.00;;;21.30
68939;BMP180;59064;45.294;11.816;2023-07-20T03:38:20;100714.40;;;21.22
68939;BMP180;59064;45.294;11.816;2023-07-20T03:40:53;100722.40;;;21.20
68939;BMP180;59064;45.294;11.816;2023-07-20T03:43:18;100720.80;;;21.20
68939;BMP180;59064;45.294;11.816;2023-07-20T03:45:44;100719.20;;;21.20
68939;BMP180;59064;45.294;11.816;2023-07-20T03:48:11;100718.80;;;21.16
68939;BMP180;59064;45.294;11.816;2023-07-20T03:50:37;100724.80;;;21.20
68939;BMP180;59064;45.294;11.816;2023-07-20T03:53:02;100733.00;;;21.20
68939;BMP180;59064;45.294;11.816;2023-07-20T03:55:28;100738.20;;;21.18
68939;BMP180;59064;45.294;11.816;2023-07-20T03:57:53;100730.20;;;21.10
68939;BMP180;59064;45.294;11.816;2023-07-20T04:00:18;100733.20;;;21.10
68939;BMP180;59064;45.294;11.816;2023-07-20T04:02:44;100738.00;;;21.10
68939;BMP180;59064;45.294;11.816;2023-07-20T04:05:09;100735.20;;;21.10
68939;BMP180;59064;45.294;11.816;2023-07-20T04:07:35;100730.40;;;21.10
68939;BMP180;59064;45.294;11.816;2023-07-20T04:10:00;100727.40;;;21.16
68939;BMP180;59064;45.294;11.816;2023-07-20T04:12:26;100732.20;;;21.20
68939;BMP180;59064;45.294;11.816;2023-07-20T04:14:52;100747.80;;;21.20
68939;BMP180;59064;45.294;11.816;2023-07-20T04:17:18;100750.20;;;21.30
68939;BMP180;59064;45.294;11.816;2023-07-20T04:19:43;100747.00;;;21.40
68939;BMP180;59064;45.294;11.816;2023-07-20T04:22:09;100749.20;;;21.40
68939;BMP180;59064;45.294;11.816;2023-07-20T04:24:34;100753.20;;;21.50
68939;BMP180;59064;45.294;11.816;2023-07-20T04:27:00;100752.80;;;21.60
68939;BMP180;59064;45.294;11.816;2023-07-20T04:29:25;100751.20;;;21.70
68939;BMP180;59064;45.294;11.816;2023-07-20T04:31:51;100753.00;;;21.80
68939;BMP180;59064;45.294;11.816;2023-07-20T04:34:16;100753.60;;;21.80
68939;BMP180;59064;45.294;11.816;2023-07-20T04:36:43;100751.60;;;21.90
68939;BMP180;59064;45.294;11.816;2023-07-20T04:39:09;100755.80;;;22.00
68939;BMP180;59064;45.294;11.816;2023-07-20T04:41:35;100760.60;;;22.10
68939;BMP180;59064;45.294;11.816;2023-07-20T04:44:00;100766.60;;;22.20
68939;BMP180;59064;45.294;11.816;2023-07-20T04:46:26;100771.00;;;22.30
68939;BMP180;59064;45.294;11.816;2023-07-20T04:48:51;100771.80;;;22.40
68939;BMP180;59064;45.294;11.816;2023-07-20T04:51:17;100777.00;;;22.50
68939;BMP180;59064;45.294;11.816;2023-07-20T04:53:48;100772.80;;;22.60
68939;BMP180;59064;45.294;11.816;2023-07-20T04:56:14;100770.80;;;22.70
68939;BMP180;59064;45.294;11.816;2023-07-20T04:58:39;100778.20;;;22.76
68939;BMP180;59064;45.294;11.816;2023-07-20T05:01:05;100782.40;;;22.86
68939;BMP180;59064;45.294;11.816;2023-07-20T05:03:30;100788.00;;;22.90
68939;BMP180;59064;45.294;11.816;2023-07-20T05:05:56;100791.60;;;22.90
68939;BMP180;59064;45.294;11.816;2023-07-20T05:08:22;100801.60;;;23.00
68939;BMP180;59064;45.294;11.816;2023-07-20T05:10:48;100799.80;;;23.10
68939;BMP180;59064;45.294;11.816;2023-07-20T05:13:13;100795.00;;;23.20
68939;BMP180;59064;45.294;11.816;2023-07-20T05:15:39;100794.60;;;23.30
68939;BMP180;59064;45.294;11.816;2023-07-20T05:18:04;100790.40;;;23.40
68939;BMP180;59064;45.294;11.816;2023-07-20T05:20:30;100790.40;;;23.50
68939;BMP180;59064;45.294;11.816;2023-07-20T05:22:57;100789.00;;;23.50
68939;BMP180;59064;45.294;11.816;2023-07-20T05:25:22;100788.00;;;23.60
68939;BMP180;59064;45.294;11.816;2023-07-20T05:27:48;100790.00;;;23.60
68939;BMP180;59064;45.294;11.816;2023-07-20T05:30:14;100791.20;;;23.70
68939;BMP180;59064;45.294;11.816;2023-07-20T05:32:39;100795.20;;;23.84
68939;BMP180;59064;45.294;11.816;2023-07-20T05:35:05;100790.40;;;23.90
68939;BMP180;59064;45.294;11.816;2023-07-20T05:37:31;100790.20;;;23.90
68939;BMP180;59064;45.294;11.816;2023-07-20T05:39:57;100789.60;;;23.90
68939;BMP180;59064;45.294;11.816;2023-07-20T05:42:22;100790.20;;;23.86
68939;BMP180;59064;45.294;11.816;2023-07-20T05:44:48;100794.00;;;23.90
68939;BMP180;59064;45.294;11.816;2023-07-20T05:47:15;100791.40;;;24.00
68939;BMP180;59064;45.294;11.816;2023-07-20T05:49:40;100795.80;;;24.10
68939;BMP180;59064;45.294;11.816;2023-07-20T05:52:06;100791.60;;;24.20
68939;BMP180;59064;45.294;11.816;2023-07-20T05:54:31;100798.60;;;24.32
68939;BMP180;59064;45.294;11.816;2023-07-20T05:56:57;100797.60;;;24.42
68939;BMP180;59064;45.294;11.816;2023-07-20T05:59:22;100790.40;;;24.60
68939;BMP180;59064;45.294;11.816;2023-07-20T06:01:49;100791.60;;;24.70
68939;BMP180;59064;45.294;11.816;2023-07-20T06:04:15;100798.40;;;24.80
68939;BMP180;59064;45.294;11.816;2023-07-20T06:06:40;100797.80;;;24.90
68939;BMP180;59064;45.294;11.816;2023-07-20T06:09:06;100795.00;;;25.00
68939;BMP180;59064;45.294;11.816;2023-07-20T06:11:35;100793.80;;;25.00
68939;BMP180;59064;45.294;11.816;2023-07-20T06:14:00;100792.60;;;25.08
68939;BMP180;59064;45.294;11.816;2023-07-20T06:16:26;100795.20;;;25.18
68939;BMP180;59064;45.294;11.816;2023-07-20T06:18:51;100795.60;;;25.20
68939;BMP180;59064;45.294;11.816;2023-07-20T06:21:17;100798.80;;;25.30
68939;BMP180;59064;45.294;11.816;2023-07-20T06:23:43;100800.60;;;25.40
68939;BMP180;59064;45.294;11.816;2023-07-20T06:26:08;100801.80;;;25.50
68939;BMP180;59064;45.294;11.816;2023-07-20T06:28:33;100809.00;;;25.60
68939;BMP180;59064;45.294;11.816;2023-07-20T06:31:03;100811.20;;;25.70
68939;BMP180;59064;45.294;11.816;2023-07-20T06:33:29;100812.60;;;25.90
68939;BMP180;59064;45.294;11.816;2023-07-20T06:35:54;100808.80;;;26.00
68939;BMP180;59064;45.294;11.816;2023-07-20T06:38:23;100808.60;;;26.10
68939;BMP180;59064;45.294;11.816;2023-07-20T06:40:49;100809.20;;;26.16
68939;BMP180;59064;45.294;11.816;2023-07-20T06:43:15;100806.20;;;26.20
68939;BMP180;59064;45.294;11.816;2023-07-20T06:45:41;100818.40;;;26.30
68939;BMP180;59064;45.294;11.816;2023-07-20T06:48:07;100812.60;;;26.42
68939;BMP180;59064;45.294;11.816;2023-07-20T06:50:32;100814.40;;;26.40
68939;BMP180;59064;45.294;11.816;2023-07-20T06:52:58;100815.40;;;26.48
68939;BMP180;59064;45.294;11.816;2023-07-20T06:55:25;100810.80;;;26.50
68939;BMP180;59064;45.294;11.816;2023-07-20T06:57:51;100809.80;;;26.60
68939;BMP180;59064;45.294;11.816;2023-07-20T07:00:17;100806.60;;;26.64
68939;BMP180;59064;45.294;11.816;2023-07-20T07:02:43;100806.80;;;26.80
68939;BMP180;59064;45.294;11.816;2023-07-20T07:05:08;100807.00;;;27.06
68939;BMP180;59064;45.294;11.816;2023-07-20T07:07:34;100806.60;;;27.28
68939;BMP180;59064;45.294;11.816;2023-07-20T07:10:00;100811.00;;;27.40
68939;BMP180;59064;45.294;11.816;2023-07-20T07:12:25;100809.00;;;27.58
68939;BMP180;59064;45.294;11.816;2023-07-20T07:14:51;100810.40;;;27.60
68939;BMP180;59064;45.294;11.816;2023-07-20T07:17:16;100806.00;;;27.70
68939;BMP180;59064;45.294;11.816;2023-07-20T07:19:41;100805.00;;;27.70
68939;BMP180;59064;45.294;11.816;2023-07-20T07:22:07;100810.20;;;27.80
68939;BMP180;59064;45.294;11.816;2023-07-20T07:24:33;100810.80;;;27.80
68939;BMP180;59064;45.294;11.816;2023-07-20T07:27:01;100810.20;;;27.90
68939;BMP180;59064;45.294;11.816;2023-07-20T07:29:27;100814.00;;;28.10
68939;BMP180;59064;45.294;11.816;2023-07-20T07:31:53;100811.80;;;28.30
68939;BMP180;59064;45.294;11.816;2023-07-20T07:34:18;100813.80;;;28.46
68939;BMP180;59064;45.294;11.816;2023-07-20T07:36:44;100813.00;;;28.70
68939;BMP180;59064;45.294;11.816;2023-07-20T07:39:09;100814.00;;;28.80
68939;BMP180;59064;45.294;11.816;2023-07-20T07:41:35;100817.60;;;28.82
68939;BMP180;59064;45.294;11.816;2023-07-20T07:44:01;100821.60;;;29.00
68939;BMP180;59064;45.294;11.816;2023-07-20T07:46:27;100823.00;;;29.26
68939;BMP180;59064;45.294;11.816;2023-07-20T07:48:52;100822.40;;;29.40
68939;BMP180;59064;45.294;11.816;2023-07-20T07:51:19;100823.40;;;29.50
68939;BMP180;59064;45.294;11.816;2023-07-20T07:53:48;100822.60;;;29.70
68939;BMP180;59064;45.294;11.816;2023-07-20T07:56:14;100826.20;;;30.00
68939;BMP180;59064;45.294;11.816;2023-07-20T07:58:40;100820.80;;;30.26
68939;BMP180;59064;45.294;11.816;2023-07-20T08:01:06;100821.00;;;30.30
68939;BMP180;59064;45.294;11.816;2023-07-20T08:03:31;100819.20;;;30.40
68939;BMP180;59064;45.294;11.816;2023-07-20T08:05:56;100825.00;;;30.60
68939;BMP180;59064;45.294;11.816;2023-07-20T08:08:22;100826.00;;;30.62
68939;BMP180;59064;45.294;11.816;2023-07-20T08:10:48;100826.60;;;30.40
68939;BMP180;59064;45.294;11.816;2023-07-20T08:13:14;100831.80;;;30.40
68939;BMP180;59064;45.294;11.816;2023-07-20T08:15:39;100840.60;;;30.58
68939;BMP180;59064;45.294;11.816;2023-07-20T08:18:05;100836.00;;;30.98
68939;BMP180;59064;45.294;11.816;2023-07-20T08:20:32;100844.20;;;31.36
68939;BMP180;59064;45.294;11.816;2023-07-20T08:23:01;100843.40;;;31.80
68939;BMP180;59064;45.294;11.816;2023-07-20T08:25:26;100848.00;;;32.16
68939;BMP180;59064;45.294;11.816;2023-07-20T08:27:51;100854.40;;;32.30
68939;BMP180;59064;45.294;11.816;2023-07-20T08:30:21;100857.80;;;32.50
68939;BMP180;59064;45.294;11.816;2023-07-20T08:32:46;100858.00;;;32.80
68939;BMP180;59064;45.294;11.816;2023-07-20T08:35:12;100863.00;;;32.80
68939;BMP180;59064;45.294;11.816;2023-07-20T08:37:37;100856.40;;;33.00
68939;BMP180;59064;45.294;11.816;2023-07-20T08:40:03;100858.40;;;33.22
68939;BMP180;59064;45.294;11.816;2023-07-20T08:42:29;100854.60;;;33.18
68939;BMP180;59064;45.294;11.816;2023-07-20T08:44:56;100856.40;;;33.10
68939;BMP180;59064;45.294;11.816;2023-07-20T08:47:23;100856.20;;;33.14
68939;BMP180;59064;45.294;11.816;2023-07-20T08:49:50;100861.20;;;33.14
68939;BMP180;59064;45.294;11.816;2023-07-20T08:52:17;100860.80;;;33.24
68939;BMP180;59064;45.294;11.816;2023-07-20T08:54:43;100859.40;;;33.12
68939;BMP180;59064;45.294;11.816;2023-07-20T08:57:09;100858.80;;;32.78
68939;BMP180;59064;45.294;11.816;2023-07-20T08:59:38;100858.20;;;32.40
68939;BMP180;59064;45.294;11.816;2023-07-20T09:02:04;100857.60;;;32.20
68939;BMP180;59064;45.294;11.816;2023-07-20T09:04:30;100853.40;;;32.50
68939;BMP180;59064;45.294;11.816;2023-07-20T09:06:57;100852.00;;;32.78
68939;BMP180;59064;45.294;11.816;2023-07-20T09:09:23;100848.20;;;32.92
68939;BMP180;59064;45.294;11.816;2023-07-20T09:11:49;100848.80;;;33.10
68939;BMP180;59064;45.294;11.816;2023-07-20T09:14:15;100844.60;;;33.30
68939;BMP180;59064;45.294;11.816;2023-07-20T09:19:17;100847.00;;;33.38
68939;BMP180;59064;45.294;11.816;2023-07-20T09:21:47;100843.00;;;33.10
68939;BMP180;59064;45.294;11.816;2023-07-20T09:24:13;100845.60;;;32.90
68939;BMP180;59064;45.294;11.816;2023-07-20T09:26:44;100840.60;;;33.10
68939;BMP180;59064;45.294;11.816;2023-07-20T09:29:10;100845.60;;;32.90
68939;BMP180;59064;45.294;11.816;2023-07-20T09:31:36;100846.80;;;32.88
68939;BMP180;59064;45.294;11.816;2023-07-20T09:34:02;100840.20;;;32.94
68939;BMP180;59064;45.294;11.816;2023-07-20T09:36:29;100839.60;;;33.40
68939;BMP180;59064;45.294;11.816;2023-07-20T09:38:54;100843.40;;;33.66
68939;BMP180;59064;45.294;11.816;2023-07-20T09:41:21;100845.40;;;33.60
68939;BMP180;59064;45.294;11.816;2023-07-20T09:43:47;100847.80;;;33.58
68939;BMP180;59064;45.294;11.816;2023-07-20T09:46:12;100851.20;;;33.46
68939;BMP180;59064;45.294;11.816;2023-07-20T09:48:38;100848.40;;;33.30
68939;BMP180;59064;45.294;11.816;2023-07-20T09:51:06;100848.80;;;33.52
68939;BMP180;59064;45.294;11.816;2023-07-20T09:53:33;100852.40;;;33.72
68939;BMP180;59064;45.294;11.816;2023-07-20T09:56:00;100852.40;;;33.70
68939;BMP180;59064;45.294;11.816;2023-07-20T09:58:26;100851.20;;;33.60
68939;BMP180;59064;45.294;11.816;2023-07-20T10:00:55;100848.40;;;33.60
68939;BMP180;59064;45.294;11.816;2023-07-20T10:03:28;100846.40;;;33.66
68939;BMP180;59064;45.294;11.816;2023-07-20T10:06:01;100839.00;;;33.70
68939;BMP180;59064;45.294;11.816;2023-07-20T10:08:29;100829.80;;;33.80
68939;BMP180;59064;45.294;11.816;2023-07-20T10:10:58;100824.60;;;34.10
68939;BMP180;59064;45.294;11.816;2023-07-20T10:13:27;100823.00;;;34.50
68939;BMP180;59064;45.294;11.816;2023-07-20T10:16:02;100822.20;;;34.70
68939;BMP180;59064;45.294;11.816;2023-07-20T10:18:34;100826.20;;;34.60
68939;BMP180;59064;45.294;11.816;2023-07-20T10:21:00;100827.80;;;34.50
68939;BMP180;59064;45.294;11.816;2023-07-20T10:23:28;100831.40;;;34.60
68939;BMP180;59064;45.294;11.816;2023-07-20T10:25:56;100830.20;;;35.08
68939;BMP180;59064;45.294;11.816;2023-07-20T10:28:23;100831.00;;;35.66
68939;BMP180;59064;45.294;11.816;2023-07-20T10:30:50;100836.80;;;36.00
68939;BMP180;59064;45.294;11.816;2023-07-20T10:33:17;100835.00;;;36.10
68939;BMP180;59064;45.294;11.816;2023-07-20T10:35:57;100840.40;;;36.40
68939;BMP180;59064;45.294;11.816;2023-07-20T10:38:56;100839.00;;;36.60
68939;BMP180;59064;45.294;11.816;2023-07-20T10:41:38;100840.00;;;36.40
68939;BMP180;59064;45.294;11.816;2023-07-20T10:44:07;100840.40;;;36.40
68939;BMP180;59064;45.294;11.816;2023-07-20T10:46:42;100834.60;;;36.46
68939;BMP180;59064;45.294;11.816;2023-07-20T10:49:10;100833.60;;;36.40
68939;BMP180;59064;45.294;11.816;2023-07-20T10:51:46;100831.60;;;36.52
68939;BMP180;59064;45.294;11.816;2023-07-20T10:56:48;100825.00;;;35.84
68939;BMP180;59064;45.294;11.816;2023-07-20T11:01:49;100821.80;;;35.34
68939;BMP180;59064;45.294;11.816;2023-07-20T11:04:15;100823.80;;;35.60
68939;BMP180;59064;45.294;11.816;2023-07-20T11:06:45;100825.40;;;35.78
68939;BMP180;59064;45.294;11.816;2023-07-20T11:09:14;100824.60;;;36.00
68939;BMP180;59064;45.294;11.816;2023-07-20T11:11:48;100816.00;;;35.90
68939;BMP180;59064;45.294;11.816;2023-07-20T11:14:21;100817.60;;;35.46
68939;BMP180;59064;45.294;11.816;2023-07-20T11:16:49;100815.20;;;35.00
68939;BMP180;59064;45.294;11.816;2023-07-20T11:19:26;100812.60;;;35.28
68939;BMP180;59064;45.294;11.816;2023-07-20T11:21:57;100809.20;;;35.74
68939;BMP180;59064;45.294;11.816;2023-07-20T11:24:23;100801.80;;;35.70
68939;BMP180;59064;45.294;11.816;2023-07-20T11:26:50;100800.60;;;35.90
68939;BMP180;59064;45.294;11.816;2023-07-20T11:29:21;100798.80;;;35.88
68939;BMP180;59064;45.294;11.816;2023-07-20T11:31:48;100799.40;;;36.08
68939;BMP180;59064;45.294;11.816;2023-07-20T11:34:16;100797.80;;;36.30
68939;BMP180;59064;45.294;11.816;2023-07-20T11:36:51;100798.40;;;36.30
68939;BMP180;59064;45.294;11.816;2023-07-20T11:39:19;100794.80;;;36.20
68939;BMP180;59064;45.294;11.816;2023-07-20T11:41:47;100793.40;;;35.80
68939;BMP180;59064;45.294;11.816;2023-07-20T11:44:16;100795.40;;;35.60
68939;BMP180;59064;45.294;11.816;2023-07-20T11:46:42;100791.00;;;35.70
68939;BMP180;59064;45.294;11.816;2023-07-20T11:49:10;100792.20;;;35.94
68939;BMP180;59064;45.294;11.816;2023-07-20T11:51:36;100791.00;;;35.80
68939;BMP180;59064;45.294;11.816;2023-07-20T11:54:04;100784.60;;;35.90
68939;BMP180;59064;45.294;11.816;2023-07-20T11:56:30;100787.00;;;35.80
68939;BMP180;59064;45.294;11.816;2023-07-20T11:58:57;100786.00;;;35.90
68939;BMP180;59064;45.294;11.816;2023-07-20T12:01:25;100783.80;;;35.86
68939;BMP180;59064;45.294;11.816;2023-07-20T12:03:59;100779.40;;;35.86
68939;BMP180;59064;45.294;11.816;2023-07-20T12:06:26;100779.00;;;35.80
68939;BMP180;59064;45.294;11.816;2023-07-20T12:08:55;100774.00;;;36.20
68939;BMP180;59064;45.294;11.816;2023-07-20T12:11:33;100768.60;;;36.40
68939;BMP180;59064;45.294;11.816;2023-07-20T12:14:00;100767.00;;;36.34
68939;BMP180;59064;45.294;11.816;2023-07-20T12:16:29;100764.60;;;36.36
68939;BMP180;59064;45.294;11.816;2023-07-20T12:19:01;100760.80;;;36.28
68939;BMP180;59064;45.294;11.816;2023-07-20T12:21:28;100755.20;;;36.12
68939;BMP180;59064;45.294;11.816;2023-07-20T12:23:56;100757.80;;;36.10
68939;BMP180;59064;45.294;11.816;2023-07-20T12:26:23;100760.20;;;36.10
68939;BMP180;59064;45.294;11.816;2023-07-20T12:28:49;100755.60;;;36.30
68939;BMP180;59064;45.294;11.816;2023-07-20T12:31:15;100754.60;;;36.16
68939;BMP180;59064;45.294;11.816;2023-07-20T12:33:41;100760.80;;;36.00
68939;BMP180;59064;45.294;11.816;2023-07-20T12:36:08;100754.60;;;35.90
68939;BMP180;59064;45.294;11.816;2023-07-20T12:38:34;100751.20;;;36.38
68939;BMP180;59064;45.294;11.816;2023-07-20T12:41:03;100747.40;;;37.04
68939;BMP180;59064;45.294;11.816;2023-07-20T12:43:29;100744.80;;;37.52
68939;BMP180;59064;45.294;11.816;2023-07-20T12:45:55;100744.20;;;37.90
68939;BMP180;59064;45.294;11.816;2023-07-20T12:48:21;100740.80;;;37.90
68939;BMP180;59064;45.294;11.816;2023-07-20T12:50:47;100738.60;;;38.04
68939;BMP180;59064;45.294;11.816;2023-07-20T12:53:13;100743.20;;;38.44
68939;BMP180;59064;45.294;11.816;2023-07-20T12:55:38;100746.60;;;38.66
68939;BMP180;59064;45.294;11.816;2023-07-20T12:58:07;100741.60;;;39.10
68939;BMP180;59064;45.294;11.816;2023-07-20T13:00:33;100741.80;;;39.00
68939;BMP180;59064;45.294;11.816;2023-07-20T13:02:58;100737.60;;;38.50
68939;BMP180;59064;45.294;11.816;2023-07-20T13:05:24;100737.00;;;38.40
68939;BMP180;59064;45.294;11.816;2023-07-20T13:07:49;100729.80;;;38.50
68939;BMP180;59064;45.294;11.816;2023-07-20T13:10:15;100730.80;;;38.70
68939;BMP180;59064;45.294;11.816;2023-07-20T13:12:41;100728.60;;;39.04
68939;BMP180;59064;45.294;11.816;2023-07-20T13:15:08;100727.60;;;39.30
68939;BMP180;59064;45.294;11.816;2023-07-20T13:17:35;100725.20;;;39.20
68939;BMP180;59064;45.294;11.816;2023-07-20T13:20:02;100720.00;;;38.80
68939;BMP180;59064;45.294;11.816;2023-07-20T13:22:30;100721.00;;;39.10
68939;BMP180;59064;45.294;11.816;2023-07-20T13:24:55;100715.60;;;39.68
68939;BMP180;59064;45.294;11.816;2023-07-20T13:27:21;100715.40;;;40.00
68939;BMP180;59064;45.294;11.816;2023-07-20T13:29:46;100714.00;;;39.96
68939;BMP180;59064;45.294;11.816;2023-07-20T13:32:15;100713.00;;;39.60
68939;BMP180;59064;45.294;11.816;2023-07-20T13:34:41;100709.60;;;39.20
68939;BMP180;59064;45.294;11.816;2023-07-20T13:37:08;100705.80;;;38.92
68939;BMP180;59064;45.294;11.816;2023-07-20T13:39:33;100709.20;;;38.80
68939;BMP180;59064;45.294;11.816;2023-07-20T13:41:59;100708.60;;;38.70
68939;BMP180;59064;45.294;11.816;2023-07-20T13:44:26;100707.20;;;38.90
68939;BMP180;59064;45.294;11.816;2023-07-20T13:46:52;100707.80;;;38.80
68939;BMP180;59064;45.294;11.816;2023-07-20T13:49:17;100702.80;;;39.10
68939;BMP180;59064;45.294;11.816;2023-07-20T13:51:43;100701.00;;;39.42
68939;BMP180;59064;45.294;11.816;2023-07-20T13:54:09;100700.40;;;39.94
68939;BMP180;59064;45.294;11.816;2023-07-20T13:56:35;100699.60;;;40.58